M I D A S
Marine Information and Data Acquisition System
Tripno 371 of the Zeeleeuw from 2002-12-17 07:58:17 to 2002-12-17 15:40:07
Back to CruiseResearch ActivitiesStationsMapUnderway DataData graphs

EquipmentUnitsComment
TimeDGPSUTC
LatitudeDGPSDM.mWGS84
LongitudeDGPSDM.mWGS84
TemperatureSBE03/SBE38deg celciusITS90
ConductivitySBE21S/mITS90
SalinitySBE21 Practical Salinity Units
ChlorophylAChelsea fluorimeterg/lCalibrated in Aceton
Missing or incorrect values are displayed as -999
Sea surface data collected by the RV Zeeleeuw from 2002-12-17 07:58:17 to 2002-12-17 15:40:07
Time Latitude Longitude Temperature Conductivity Salinity ChlorophylA
2002-12-17 07:59:21 51°13.591 2°56.107 12.804075 0.00822 0.045271  
2002-12-17 08:00:22 51°13.634 2°55.975 12.808884 0.00822 0.045273  
2002-12-17 08:01:22 51°13.672 2°55.809 12.777144 0.00822 0.045275  
2002-12-17 08:02:21 51°13.678 2°55.743 12.798276 0.00822 0.045277  
2002-12-17 08:03:21 51°13.706 2°55.741 12.788475 0.00822 0.045279  
2002-12-17 08:04:21 51°13.786 2°55.676 12.823805 0.00822 0.045281  
2002-12-17 08:05:22 51°13.911 2°55.58 12.8305 0.00822 0.045284  
2002-12-17 08:06:22 51°14.046 2°55.48 12.828747 0.00822 0.045287  
2002-12-17 08:07:22 51°14.21 2°55.326 12.818277 0.00822 0.045291  
2002-12-17 08:08:21 51°14.351 2°55.082 12.807715 0.00822 0.045294  
2002-12-17 08:09:21 51°14.52 2°54.862 12.763833 0.00822 0.045301  
2002-12-17 08:10:21 51°14.71 2°54.664 12.738236 0.00822 0.045305  
2002-12-17 08:11:22 51°14.907 2°54.461 12.712719 0.00822 0.04531  
2002-12-17 08:12:21 51°15.093 2°54.267 7.149648 2.881216 26.86373  
2002-12-17 08:13:22 51°15.293 2°54.071 7.194437 3.053638 30.594888  
2002-12-17 08:14:22 51°15.486 2°53.874 6.71212 3.075852 30.968686  
2002-12-17 08:15:22 51°15.678 2°53.675 7.382949 3.101012 31.252145  
2002-12-17 08:16:22 51°15.88 2°53.5 7.219121 3.118804 31.411205  
2002-12-17 08:17:22 51°16.082 2°53.325 6.871345 3.13028 31.516572  
2002-12-17 08:18:21 51°16.278 2°53.166 6.921987 3.151652 31.694145  
2002-12-17 08:19:21 51°16.476 2°52.999 7.258037 3.179343 31.896973  
2002-12-17 08:20:22 51°16.678 2°52.828 6.810561 3.188398 31.965944  
2002-12-17 08:21:22 51°16.874 2°52.663 7.045445 3.183028 31.928999  
2002-12-17 08:22:21 51°17.067 2°52.502 6.983599 3.170288 31.852184  
2002-12-17 08:23:22 51°17.264 2°52.327 7.447777 3.159865 31.794473  
2002-12-17 08:24:22 51°17.449 2°52.13 7.001682 3.149126 31.728234  
2002-12-17 08:25:22 51°17.604 2°51.872 6.62188 3.13744 31.664212  
2002-12-17 08:26:22 51°17.739 2°51.589 6.790254 3.120806 31.545469  
2002-12-17 08:27:21 51°17.877 2°51.312 6.917067 3.117964 31.556553  
2002-12-17 08:28:21 51°18.019 2°51.029 6.672572 3.116174 31.545421  
2002-12-17 08:29:22 51°18.162 2°50.741 6.755293 3.114806 31.543863  
2002-12-17 08:30:21 51°18.305 2°50.463 6.657062 3.115332 31.553814  
2002-12-17 08:31:21 51°18.446 2°50.173 6.702939 3.119859 31.59724  
2002-12-17 08:32:21 51°18.57 2°49.865 6.73556 3.129545 31.670816  
2002-12-17 08:33:22 51°18.694 2°49.556 6.914853 3.153128 31.816695  
2002-12-17 08:34:21 51°18.815 2°49.259 6.527799 3.158181 31.842224  
2002-12-17 08:35:21 51°18.94 2°48.955 7.033071 3.170815 31.922154  
2002-12-17 08:36:21 51°19.067 2°48.647 7.34533 3.195874 32.073341  
2002-12-17 08:37:22 51°19.193 2°48.331 7.34054 3.219354 32.212699  
2002-12-17 08:38:21 51°19.319 2°48.023 7.466022 3.231463 32.280893  
2002-12-17 08:39:21 51°19.445 2°47.706 7.712558 3.237992 32.32138  
2002-12-17 08:40:22 51°19.573 2°47.384 7.302799 3.245047 32.370074  
2002-12-17 08:41:22 51°19.701 2°47.063 7.251724 3.247153 32.383576  
2002-12-17 08:42:22 51°19.83 2°46.743 7.293213 3.236412 32.320191  
2002-12-17 08:43:21 51°19.948 2°46.423 6.977406 3.214827 32.204833  
2002-12-17 08:44:22 51°20.058 2°46.086 7.260973 3.214511 32.202143  
2002-12-17 08:45:21 51°20.16 2°45.759 7.596516 3.229673 32.287132  
2002-12-17 08:46:22 51°20.238 2°45.404 7.872707 3.265581 32.488445  
2002-12-17 08:47:22 51°20.312 2°45.057 7.802291 3.324554 32.779781  
2002-12-17 08:48:21 51°20.423 2°44.769 8.114067 3.390274 33.179019  
2002-12-17 08:49:21 51°20.484 2°44.597 8.709734 3.402176 33.232553  
2002-12-17 08:50:22 51°20.516 2°44.484 8.076633 3.409233 33.270837  
2002-12-17 08:51:21 51°20.537 2°44.376 8.392374 3.421136 33.35582  
2002-12-17 08:52:22 51°20.548 2°44.259 8.084943 3.436199 33.439807  
2002-12-17 08:53:21 51°20.591 2°44.09 8.651578 3.443678 33.486421  
2002-12-17 08:54:22 51°20.797 2°44.003 8.644394 3.445995 33.506563  
2002-12-17 08:55:22 51°21.006 2°43.883 8.524217 3.448839 33.529945  
2002-12-17 08:56:21 51°21.212 2°43.757 8.625378 3.454422 33.547848  
2002-12-17 08:57:21 51°21.421 2°43.627 8.618096 3.464324 33.580535  
2002-12-17 08:58:21 51°21.628 2°43.498 8.290076 3.471908 33.614209  
2002-12-17 08:59:22 51°21.834 2°43.37 8.959997 3.472224 33.598929  
2002-12-17 09:00:22 51°22.035 2°43.253 8.745081 3.470644 33.587622  
2002-12-17 09:01:22 51°22.244 2°43.131 8.67432 3.467905 33.570344  
2002-12-17 09:02:21 51°22.448 2°43.01 8.310346 3.470538 33.579998  
2002-12-17 09:03:21 51°22.656 2°42.891 8.635629 3.474857 33.601267  
2002-12-17 09:04:21 51°22.866 2°42.772 8.769845 3.481283 33.632971  
2002-12-17 09:05:22 51°23.084 2°42.652 8.780838 3.487393 33.66367  
2002-12-17 09:06:22 51°23.297 2°42.535 9.077703 3.499297 33.731281  
2002-12-17 09:07:22 51°23.514 2°42.419 8.579899 3.511517 33.812655  
2002-12-17 09:08:21 51°23.723 2°42.305 8.512365 3.521947 33.875531  
2002-12-17 09:09:22 51°23.939 2°42.186 9.343467 3.531218 33.926717  
2002-12-17 09:10:21 51°24.149 2°42.067 9.331906 3.540383 33.967755  
2002-12-17 09:11:21 51°24.36 2°41.948 9.025114 3.546494 33.975344  
2002-12-17 09:12:21 51°24.572 2°41.83 9.062097 3.551445 33.98759  
2002-12-17 09:13:21 51°24.786 2°41.713 9.096634 3.556607 34.008531  
2002-12-17 09:14:21 51°24.999 2°41.592 9.234976 3.561243 34.026273  
2002-12-17 09:15:21 51°25.212 2°41.477 9.082602 3.564193 34.042255  
2002-12-17 09:16:22 51°25.431 2°41.358 9.157575 3.564615 34.049158  
2002-12-17 09:17:21 51°25.639 2°41.237 9.252011 3.566511 34.060408  
2002-12-17 09:18:21 51°25.851 2°41.115 9.696277 3.57947 34.10741  
2002-12-17 09:19:22 51°26.066 2°40.996 9.651072 3.598013 34.178644  
2002-12-17 09:20:22 51°26.278 2°40.879 9.458729 3.609181 34.22731  
2002-12-17 09:21:22 51°26.5 2°40.893 10.613891 3.609182 34.229726  
2002-12-17 09:22:21 51°26.681 2°41.083 9.561984 3.611183 34.237964  
2002-12-17 09:23:22 51°26.777 2°41.426 9.195907 3.614239 34.24765  
2002-12-17 09:24:21 51°26.846 2°41.777 9.399775 3.616452 34.254077  
2002-12-17 09:25:21 51°26.92 2°42.134 9.742346 3.617821 34.25725  
2002-12-17 09:26:22 51°26.991 2°42.5 9.805178 3.622668 34.27292  
2002-12-17 09:27:22 51°27.058 2°42.858 9.66847 3.625513 34.281969  
2002-12-17 09:28:22 51°27.124 2°43.217 9.753363 3.627515 34.290178  
2002-12-17 09:29:21 51°27.191 2°43.574 9.466485 3.628779 34.293839  
2002-12-17 09:30:21 51°27.258 2°43.938 9.368572 3.632151 34.305201  
2002-12-17 09:31:22 51°27.297 2°44.316 9.532749 3.634785 34.31683  
2002-12-17 09:32:21 51°27.264 2°44.683 9.909482 3.634785 34.317633  
2002-12-17 09:33:22 51°27.114 2°44.964 9.648196 3.626777 34.29206  
2002-12-17 09:34:22 51°26.91 2°45.131 8.803965 3.615082 34.242054  
2002-12-17 09:35:21 51°26.717 2°45.317 9.45348 3.605494 34.206104  
2002-12-17 09:36:22 51°26.515 2°45.506 9.238488 3.600858 34.187754  
2002-12-17 09:37:22 51°26.325 2°45.71 9.265484 3.589268 34.132113  
2002-12-17 09:38:21 51°26.144 2°45.924 9.253007 3.580734 34.090148  
2002-12-17 09:39:22 51°25.954 2°46.145 9.166982 3.572832 34.053998  
2002-12-17 09:40:21 51°25.772 2°46.357 9.226481 3.56335 34.007463  
2002-12-17 09:41:21 51°25.59 2°46.589 9.358058 3.556396 33.976397  
2002-12-17 09:42:22 51°25.411 2°46.833 9.028637 3.552709 33.959815  
2002-12-17 09:43:22 51°25.34 2°47.177 9.049153 3.550497 33.953251  
2002-12-17 09:44:21 51°25.415 2°47.525 8.954659 3.547757 33.942696  
2002-12-17 09:45:21 51°25.545 2°47.842 8.866518 3.545545 33.928852  
2002-12-17 09:46:22 51°25.68 2°48.169 9.207872 3.543333 33.917425  
2002-12-17 09:47:22 51°25.805 2°48.497 8.880119 3.540909 33.90375  
2002-12-17 09:48:21 51°25.921 2°48.827 8.753974 3.538802 33.895049  
2002-12-17 09:49:21 51°26.038 2°49.164 9.214851 3.536906 33.885357  
2002-12-17 09:50:21 51°26.156 2°49.502 8.766117 3.535431 33.881766  
2002-12-17 09:51:22 51°26.268 2°49.854 8.870432 3.533324 33.871437  
2002-12-17 09:52:22 51°26.458 2°50.016 8.747806 3.531217 33.863529  
2002-12-17 09:53:21 51°26.628 2°49.816 9.108475 3.531744 33.863485  
2002-12-17 09:54:21 51°26.808 2°49.593 8.55698 3.531638 33.860746  
2002-12-17 09:55:22 51°26.996 2°49.374 8.469976 3.530164 33.851489  
2002-12-17 09:56:21 51°27.179 2°49.167 9.385004 3.529637 33.849915  
2002-12-17 09:57:22 51°27.37 2°48.952 8.421263 3.534378 33.873773  
2002-12-17 09:58:22 51°27.558 2°48.739 9.010305 3.544491 33.925719  
2002-12-17 09:59:21 51°27.746 2°48.531 9.233505 3.550497 33.958098  
2002-12-17 10:00:22 51°27.936 2°48.314 8.950703 3.567143 34.038033  
2002-12-17 10:01:21 51°28.123 2°48.107 9.439478 3.561875 34.01602  
2002-12-17 10:02:22 51°28.314 2°47.894 9.552634 3.587372 34.124138  
2002-12-17 10:03:21 51°28.495 2°47.685 9.993124 3.628569 34.299656  
2002-12-17 10:04:21 51°28.682 2°47.474 9.358579 3.644268 34.358637  
2002-12-17 10:05:21 51°28.865 2°47.262 9.454709 3.651539 34.389184  
2002-12-17 10:06:29 51°29.073 2°47.023 9.694722 3.653962 34.40176  
2002-12-17 10:07:29 51°29.254 2°46.809 9.590026 3.655227 34.407796  
2002-12-17 10:08:29 51°29.438 2°46.598 9.608101 3.657756 34.419863  
2002-12-17 10:09:29 51°29.622 2°46.383 9.8294 3.660706 34.429926  
2002-12-17 10:10:29 51°29.805 2°46.17 9.730667 3.664394 34.441293  
2002-12-17 10:11:29 51°29.986 2°45.958 10.063072 3.667661 34.452244  
2002-12-17 10:12:29 51°30.197 2°45.83 9.969807 3.670506 34.462783  
2002-12-17 10:13:29 51°30.42 2°45.931 10.219107 3.673561 34.473116  
2002-12-17 10:14:29 51°30.565 2°46.236 9.920143 3.67588 34.480537  
2002-12-17 10:15:29 51°30.684 2°46.578 9.936154 3.675353 34.481432  
2002-12-17 10:16:29 51°30.803 2°46.92 9.734576 3.672402 34.467404  
2002-12-17 10:17:29 51°30.92 2°47.266 9.574496 3.671559 34.467396  
2002-12-17 10:18:33 51°31.04 2°47.634 9.615508 3.671454 34.466294  
2002-12-17 10:19:34 51°31.152 2°47.99 10.080454 3.671454 34.465494  
2002-12-17 10:20:33 51°31.273 2°48.321 9.829964 3.671665 34.463696  
2002-12-17 10:21:33 51°31.397 2°48.657 10.07249 3.674088 34.469822  
2002-12-17 10:22:33 51°31.522 2°48.999 10.1497 3.67588 34.481336  
2002-12-17 10:23:34 51°31.639 2°49.34 9.767768 3.675353 34.474234  
2002-12-17 10:24:34 51°31.759 2°49.68 10.058949 3.67451 34.471026  
2002-12-17 10:25:34 51°31.88 2°50.017 9.912394 3.67177 34.460797  
2002-12-17 10:26:34 51°31.999 2°50.362 10.039968 3.668714 34.453658  
2002-12-17 10:27:34 51°31.99 2°50.733 9.965865 3.664605 34.439494  
2002-12-17 10:28:33 51°31.834 2°50.991 9.846233 3.65744 34.419758  
2002-12-17 10:29:33 51°31.638 2°51.163 9.595312 3.647429 34.38218  
2002-12-17 10:30:33 51°31.442 2°51.344 9.407253 3.639527 34.352999  
2002-12-17 10:31:34 51°31.24 2°51.524 9.782264 3.635734 34.331613  
2002-12-17 10:32:33 51°31.045 2°51.71 9.650742 3.631519 34.314617  
2002-12-17 10:33:34 51°30.846 2°51.889 9.358437 3.624881 34.288175  
2002-12-17 10:34:33 51°30.648 2°52.058 9.151113 3.622141 34.273  
2002-12-17 10:35:34 51°30.448 2°52.241 9.804331 3.620245 34.265087  
2002-12-17 10:36:33 51°30.249 2°52.411 9.603382 3.619086 34.259311  
2002-12-17 10:37:34 51°30.044 2°52.585 9.958028 3.618348 34.258779  
2002-12-17 10:38:34 51°29.876 2°52.825 9.979942 3.621509 34.274383  
2002-12-17 10:39:34 51°29.94 2°53.176 9.491212 3.622879 34.289614  
2002-12-17 10:40:34 51°30.072 2°53.514 9.270796 3.569145 34.044743  
2002-12-17 10:41:34 51°30.198 2°53.859 9.470079 3.553657 33.969087  
2002-12-17 10:42:34 51°30.321 2°54.203 9.663378 3.59717 34.174571  
2002-12-17 10:43:33 51°30.437 2°54.545 9.372408 3.601174 34.194315  
2002-12-17 10:44:33 51°30.556 2°54.893 9.180757 3.600331 34.188633  
2002-12-17 10:45:34 51°30.676 2°55.244 9.523206 3.593061 34.152888  
2002-12-17 10:46:33 51°30.792 2°55.585 9.399538 3.584843 34.113498  
2002-12-17 10:47:33 51°30.91 2°55.932 9.218364 3.579364 34.091768  
2002-12-17 10:48:34 51°31.034 2°56.287 9.433044 3.576204 34.079249  
2002-12-17 10:49:34 51°31.154 2°56.637 9.436403 3.574202 34.070939  
2002-12-17 10:50:33 51°31.273 2°56.981 9.653383 3.574202 34.069325  
2002-12-17 10:51:33 51°31.393 2°57.33 9.555846 3.570409 34.053313  
2002-12-17 10:52:33 51°31.576 2°57.556 9.398923 3.569039 34.047662  
2002-12-17 10:53:33 51°31.776 2°57.425 9.353794 3.566511 34.037783  
2002-12-17 10:54:34 51°31.951 2°57.192 9.19624 3.559452 34.013707  
2002-12-17 10:55:34 51°32.133 2°56.97 8.986919 3.556818 34.005919  
2002-12-17 10:56:33 51°32.314 2°56.764 9.305554 3.556186 34.007285  
2002-12-17 10:57:33 51°32.502 2°56.556 8.875634 3.556818 34.012389  
2002-12-17 10:58:34 51°32.695 2°56.341 9.280282 3.557977 34.017433  
2002-12-17 10:59:34 51°32.888 2°56.134 9.056149 3.56019 34.031248  
2002-12-17 11:00:34 51°33.078 2°55.926 9.18223 3.562086 34.040081  
2002-12-17 11:01:33 51°33.262 2°55.718 9.193058 3.563877 34.052644  
2002-12-17 11:02:33 51°33.4 2°55.589 9.516591 3.56609 34.061592  
2002-12-17 11:03:34 51°33.524 2°55.545 9.177005 3.568618 34.078744  
2002-12-17 11:04:33 51°33.642 2°55.711 9.067569 3.570304 34.079661  
2002-12-17 11:05:34 51°33.746 2°55.964 9.17064 3.570304 34.085322  
2002-12-17 11:06:33 51°33.85 2°56.205 9.294744 3.569461 34.078798  
2002-12-17 11:07:34 51°33.958 2°56.457 8.513277 3.56904 34.077558  
2002-12-17 11:08:33 51°34.058 2°56.709 8.200926 3.56925 34.07737  
2002-12-17 11:09:33 51°34.159 2°56.965 8.398864 3.568724 34.073393  
2002-12-17 11:10:34 51°34.261 2°57.225 8.572372 3.568197 34.074268  
2002-12-17 11:11:34 51°34.357 2°57.479 8.361788 3.565458 34.062156  
2002-12-17 11:12:34 51°34.452 2°57.738 8.340764 3.562718 34.049227  
2002-12-17 11:13:33 51°34.548 2°57.997 8.282997 3.559241 34.031684  
2002-12-17 11:14:33 51°34.639 2°58.262 8.278903 3.557134 34.021414  
2002-12-17 11:15:34 51°34.731 2°58.534 8.199479 3.556818 34.022908  
2002-12-17 11:16:33 51°34.823 2°58.798 8.165038 3.557345 34.024464  
2002-12-17 11:17:33 51°34.916 2°59.065 8.217512 3.556924 34.029696  
2002-12-17 11:18:34 51°35.009 2°59.339 8.294843 3.554606 34.022037  
2002-12-17 11:19:34 51°35.099 2°59.602 8.408767 3.554711 34.022349  
2002-12-17 11:20:33 51°35.191 2°59.863 8.012244 3.552288 33.998988  
2002-12-17 11:21:33 51°35.23 3°0.137 8.454223 3.553763 34.016306  
2002-12-17 11:22:33 51°35.164 3°0.342 8.204687 3.553974 34.020979  
2002-12-17 11:23:33 51°35.013 3°0.525 8.064263 3.550813 33.99786  
2002-12-17 11:24:33 51°34.924 3°0.649 8.154133 3.544703 33.961933  
2002-12-17 11:25:34 51°34.782 3°0.758 8.029411 3.542385 33.952623  
2002-12-17 11:26:33 51°34.644 3°0.904 8.012051 3.539435 33.93333  
2002-12-17 11:27:34 51°34.494 3°1.029 8.122372 3.539646 33.945296  
2002-12-17 11:28:33 51°34.344 3°1.143 8.346731 3.53638 33.921811  
2002-12-17 11:29:34 51°34.188 3°1.248 8.220694 3.533008 33.896382  
2002-12-17 11:30:34 51°34.036 3°1.352 8.137579 3.532482 33.900481  
2002-12-17 11:31:34 51°33.885 3°1.454 8.05073 3.53048 33.879935  
2002-12-17 11:32:33 51°33.735 3°1.554 7.974848 3.528373 33.860693  
2002-12-17 11:33:33 51°33.583 3°1.661 8.101994 3.529426 33.871123  
2002-12-17 11:34:33 51°33.431 3°1.77 8.165521 3.529321 33.857055  
2002-12-17 11:35:33 51°33.278 3°1.866 8.154567 3.534062 33.878488  
2002-12-17 11:36:33 51°33.125 3°1.957 8.193933 3.538592 33.904929  
2002-12-17 11:37:34 51°32.97 3°2.046 8.093638 3.534167 33.890125  
2002-12-17 11:38:33 51°32.819 3°2.132 8.13502 3.519102 33.821618  
2002-12-17 11:39:34 51°32.666 3°2.221 7.882885 3.507725 33.782607  
2002-12-17 11:40:34 51°32.513 3°2.317 7.952922 3.496664 33.738752  
2002-12-17 11:41:34 51°32.358 3°2.408 7.893012 3.491291 33.713601  
2002-12-17 11:42:33 51°32.206 3°2.503 7.755741 3.487499 33.699699  
2002-12-17 11:43:33 51°32.055 3°2.589 7.589506 3.473804 33.637046  
2002-12-17 11:44:33 51°31.902 3°2.683 7.760305 3.454106 33.54851  
2002-12-17 11:45:33 51°31.751 3°2.779 7.490163 3.445258 33.508374  
2002-12-17 11:46:33 51°31.599 3°2.866 7.262686 3.432091 33.453223  
2002-12-17 11:47:33 51°31.452 3°2.96 7.364972 3.422822 33.414835  
2002-12-17 11:48:33 51°31.303 3°3.06 7.185864 3.412289 33.37489  
2002-12-17 11:49:34 51°31.15 3°3.158 7.166705 3.400387 33.333032  
2002-12-17 11:50:33 51°31.004 3°3.256 6.886606 3.386905 33.284471  
2002-12-17 11:51:33 51°30.854 3°3.353 7.051141 3.379111 33.253546  
2002-12-17 11:52:34 51°30.7 3°3.456 7.069058 3.373108 33.228173  
2002-12-17 11:53:33 51°30.549 3°3.549 6.967525 3.368263 33.208864  
2002-12-17 11:54:33 51°30.396 3°3.649 6.804992 3.361101 33.178951  
2002-12-17 11:55:34 51°30.239 3°3.749 6.849678 3.355098 33.150991  
2002-12-17 11:56:33 51°30.093 3°3.843 6.741382 3.350569 33.126002  
2002-12-17 11:57:33 51°29.972 3°3.935 6.919429 3.351517 33.117487  
2002-12-17 11:58:34 51°29.775 3°4.053 6.771075 3.351728 33.107472  
2002-12-17 11:59:33 51°29.582 3°4.211 6.502747 3.342249 33.068418  
2002-12-17 12:00:33 51°29.39 3°4.382 6.332367 3.304758 32.924114  
2002-12-17 12:01:34 51°29.191 3°4.558 6.021023 3.2798 32.834653  
2002-12-17 12:02:34 51°28.994 3°4.734 6.232784 3.260951 32.761944  
2002-12-17 12:03:34 51°28.797 3°4.909 6.092636 3.254528 32.736058  
2002-12-17 12:04:34 51°28.6 3°5.068 5.859397 3.244735 32.702448  
2002-12-17 12:05:34 51°28.402 3°5.225 5.797636 3.233995 32.659807  
2002-12-17 12:06:34 51°28.194 3°5.332 5.688129 3.220938 32.611084  
2002-12-17 12:07:34 51°27.973 3°5.365 5.805197 3.208513 32.545887  
2002-12-17 12:08:33 51°27.759 3°5.389 5.741578 3.200932 32.4974  
2002-12-17 12:09:34 51°27.536 3°5.408 5.821867 3.195246 32.454311  
2002-12-17 12:10:34 51°27.319 3°5.441 5.667961 3.194614 32.434699  
2002-12-17 12:11:34 51°27.133 3°5.61 5.952426 3.206512 32.454309  
2002-12-17 12:12:34 51°27.01 3°5.906 6.096374 3.217357 32.465426  
2002-12-17 12:13:34 51°26.915 3°6.238 6.372177 3.225253 32.471749  
2002-12-17 12:14:34 51°26.835 3°6.585 6.244022 3.231044 32.481013  
2002-12-17 12:15:34 51°26.751 3°6.926 6.133592 3.233993 32.488289  
2002-12-17 12:16:34 51°26.652 3°7.249 6.339715 3.235256 32.490817  
2002-12-17 12:17:33 51°26.658 3°7.612 6.086804 3.235046 32.488473  
2002-12-17 12:18:34 51°26.756 3°7.857 6.233629 3.232834 32.47622  
2002-12-17 12:19:34 51°26.819 3°7.919 6.10066 3.229465 32.456006  
2002-12-17 12:20:33 51°26.837 3°7.938 5.954175 3.228096 32.455592  
2002-12-17 12:21:35 51°26.849 3°7.948 6.266741 3.226622 32.459777  
2002-12-17 12:22:34 51°26.859 3°7.954 6.175567 3.225148 32.453243  
2002-12-17 12:23:33 51°26.862 3°7.969 6.014586 3.224832 32.45467  
2002-12-17 12:24:34 51°26.835 3°8.017 5.974751 3.224621 32.452322  
2002-12-17 12:25:34 51°26.795 3°8.024 6.07833 3.225253 32.450292  
2002-12-17 12:26:34 51°26.762 3°7.985 6.093533 3.226832 32.448932  
2002-12-17 12:27:34 51°26.74 3°7.927 6.352027 3.227675 32.447604  
2002-12-17 12:28:34 51°26.731 3°7.859 6.018578 3.228096 32.443235  
2002-12-17 12:29:34 51°26.735 3°7.79 6.264852 3.22778 32.443011  
2002-12-17 12:30:34 51°26.752 3°7.718 6.184277 3.228096 32.446529  
2002-12-17 12:31:34 51°26.778 3°7.656 6.063671 3.228938 32.452615  
2002-12-17 12:32:34 51°26.808 3°7.611 5.988531 3.229675 32.459175  
2002-12-17 12:33:34 51°26.841 3°7.571 6.150774 3.230728 32.464309  
2002-12-17 12:34:34 51°26.879 3°7.533 6.120989 3.231255 32.467699  
2002-12-17 12:35:33 51°26.919 3°7.496 6.24969 3.232203 32.472483  
2002-12-17 12:36:34 51°26.962 3°7.457 6.081719 3.233361 32.477961  
2002-12-17 12:37:34 51°26.999 3°7.428 6.334254 3.233571 32.478658  
2002-12-17 12:38:34 51°27.034 3°7.403 6.090243 3.234098 32.48287  
2002-12-17 12:39:34 51°27.075 3°7.381 6.257595 3.233993 32.480874  
2002-12-17 12:40:33 51°27.121 3°7.365 6.171585 3.234414 32.48309  
2002-12-17 12:41:34 51°27.167 3°7.352 6.013688 3.234308 32.485213  
2002-12-17 12:42:34 51°27.21 3°7.343 6.293775 3.234519 32.486733  
2002-12-17 12:43:33 51°27.253 3°7.336 6.209406 3.234098 32.488637  
2002-12-17 12:44:34 51°27.297 3°7.333 6.083913 3.233993 32.488289  
2002-12-17 12:45:34 51°27.335 3°7.335 6.024615 3.233045 32.48598  
2002-12-17 12:46:33 51°27.368 3°7.345 6.166457 3.230729 32.480793  
2002-12-17 12:47:34 51°27.4 3°7.378 6.043523 3.22957 32.476137  
2002-12-17 12:48:33 51°27.412 3°7.43 5.871452 3.228833 32.476997  
2002-12-17 12:49:34 51°27.395 3°7.477 5.869552 3.222094 32.448895  
2002-12-17 12:50:34 51°27.371 3°7.523 5.893756 3.224411 32.450799  
2002-12-17 12:51:33 51°27.343 3°7.561 5.899855 3.226411 32.459079  
2002-12-17 12:52:34 51°27.309 3°7.589 5.9173 3.227148 32.461521  
2002-12-17 12:53:34 51°27.272 3°7.602 5.927445 3.228833 32.466275  
2002-12-17 12:54:34 51°27.236 3°7.598 5.938888 3.230307 32.467034  
2002-12-17 12:55:33 51°27.202 3°7.58 5.947481 3.231676 32.474036  
2002-12-17 12:56:34 51°27.17 3°7.549 5.947181 3.233045 32.484332  
2002-12-17 12:57:34 51°27.143 3°7.507 5.943035 3.23315 32.487977  
2002-12-17 12:58:33 51°27.124 3°7.451 5.93614 3.233361 32.493619  
2002-12-17 12:59:34 51°27.115 3°7.383 5.929094 3.233045 32.497524  
2002-12-17 13:00:34 51°27.121 3°7.309 5.923597 3.23294 32.5013  
2002-12-17 13:01:33 51°27.142 3°7.245 5.916801 3.232624 32.505208  
2002-12-17 13:02:33 51°27.174 3°7.195 5.91885 3.232519 32.506511  
2002-12-17 13:03:34 51°27.213 3°7.154 5.922748 3.232729 32.505556  
2002-12-17 13:04:33 51°27.252 3°7.124 5.928045 3.233361 32.505992  
2002-12-17 13:05:33 51°27.295 3°7.101 5.930094 3.233782 32.508208  
2002-12-17 13:06:33 51°27.341 3°7.085 5.936789 3.233782 32.504908  
2002-12-17 13:07:33 51°27.38 3°7.077 5.938988 3.233993 32.500654  
2002-12-17 13:08:33 51°27.408 3°7.069 5.945133 3.234203 32.500525  
2002-12-17 13:09:34 51°27.431 3°7.061 5.944433 3.234519 32.504043  
2002-12-17 13:10:33 51°27.452 3°7.048 5.951277 3.234835 32.501788  
2002-12-17 13:11:33 51°27.485 3°6.891 5.951727 3.234203 32.49393  
2002-12-17 13:12:33 51°27.383 3°6.643 5.945832 3.223568 32.376389  
2002-12-17 13:13:33 51°27.227 3°6.397 5.992126 3.204192 32.161728  
2002-12-17 13:14:33 51°27.049 3°6.193 5.965962 3.228833 32.428397  
2002-12-17 13:15:34 51°26.856 3°6.018 5.96766 3.233361 32.464788  
2002-12-17 13:16:34 51°26.667 3°5.851 5.960868 3.223989 32.360554  
2002-12-17 13:17:34 51°26.476 3°5.691 5.944284 3.233782 32.480178  
2002-12-17 13:18:34 51°26.272 3°5.586 5.835181 3.228728 32.477474  
2002-12-17 13:19:34 51°26.064 3°5.48 5.775199 3.206405 32.324086  
2002-12-17 13:20:33 51°25.861 3°5.405 5.705181 3.196613 32.249287  
2002-12-17 13:21:34 51°25.638 3°5.392 5.65396 3.186821 32.224593  
2002-12-17 13:22:34 51°25.419 3°5.386 5.606514 3.186084 32.204805  
2002-12-17 13:23:34 51°25.196 3°5.371 5.457821 3.151971 31.989381  
2002-12-17 13:24:33 51°24.978 3°5.357 5.458324 3.134284 31.836616  
2002-12-17 13:25:34 51°24.753 3°5.359 5.385686 3.141548 31.924044  
2002-12-17 13:26:34 51°24.53 3°5.361 5.261221 3.121651 31.811006  
2002-12-17 13:27:34 51°24.303 3°5.357 5.144048 3.10807 31.711225  
2002-12-17 13:28:33 51°24.086 3°5.384 5.131702 3.083542 31.571931  
2002-12-17 13:29:34 51°23.891 3°5.558 5.060357 3.085016 31.567262  
2002-12-17 13:30:34 51°23.874 3°5.907 5.036287 3.068594 31.4707  
2002-12-17 13:31:34 51°23.896 3°6.277 5.013983 3.060278 31.392787  
2002-12-17 13:32:34 51°23.904 3°6.65 4.994967 3.057331 31.390492  
2002-12-17 13:33:33 51°23.911 3°7.016 4.991468 3.058594 31.404012  
2002-12-17 13:34:34 51°23.914 3°7.388 4.935601 3.05512 31.399856  
2002-12-17 13:35:34 51°23.916 3°7.754 4.924381 3.05312 31.405884  
2002-12-17 13:36:33 51°23.917 3°8.113 4.924483 3.049331 31.368541  
2002-12-17 13:37:33 51°23.934 3°8.479 4.939002 3.051331 31.393754  
2002-12-17 13:38:34 51°23.96 3°8.849 4.950372 3.056594 31.437984  
2002-12-17 13:39:33 51°23.985 3°9.209 5.001408 3.059121 31.456834  
2002-12-17 13:40:34 51°24.009 3°9.58 4.949966 3.059226 31.461324  
2002-12-17 13:41:33 51°24.031 3°9.939 4.954026 3.059542 31.464915  
2002-12-17 13:42:34 51°24.055 3°10.311 4.975997 3.061963 31.483383  
2002-12-17 13:43:34 51°24.08 3°10.674 4.961486 3.065858 31.5153  
2002-12-17 13:44:33 51°24.111 3°11.031 4.97209 3.06291 31.494154  
2002-12-17 13:45:34 51°24.146 3°11.401 4.979294 3.065437 31.512162  
2002-12-17 13:46:34 51°24.189 3°11.763 4.985838 3.066174 31.513945  
2002-12-17 13:47:34 51°24.229 3°12.124 4.992431 3.067963 31.530986  
2002-12-17 13:48:33 51°24.266 3°12.48 5.012411 3.0707 31.54972  
2002-12-17 13:49:33 51°24.304 3°12.842 5.022145 3.075332 31.585017  
2002-12-17 13:50:34 51°24.344 3°13.209 5.036338 3.077543 31.601872  
2002-12-17 13:51:33 51°24.384 3°13.561 5.060965 3.08049 31.619661  
2002-12-17 13:52:34 51°24.427 3°13.923 5.079151 3.085438 31.652705  
2002-12-17 13:53:33 51°24.465 3°14.274 5.092723 3.087754 31.663296  
2002-12-17 13:54:33 51°24.492 3°14.631 5.098799 3.089017 31.66772  
2002-12-17 13:55:34 51°24.514 3°14.991 5.072718 3.085648 31.631998  
2002-12-17 13:56:33 51°24.528 3°15.339 5.056608 3.076595 31.553216  
2002-12-17 13:57:33 51°24.53 3°15.688 5.054733 3.071858 31.510999  
2002-12-17 13:58:33 51°24.5 3°16.033 5.027417 3.065331 31.437796  
2002-12-17 13:59:33 51°24.464 3°16.378 5.014997 3.052067 31.314391  
2002-12-17 14:00:34 51°24.432 3°16.731 5.012259 3.046067 31.256137  
2002-12-17 14:01:39 51°24.399 3°17.106 5.010789 3.03933 31.180547  
2002-12-17 14:02:41 51°24.37 3°17.463 5.051541 3.033119 31.111759  
2002-12-17 14:03:41 51°24.341 3°17.807 5.005617 3.028698 31.064078  
2002-12-17 14:04:43 51°24.294 3°18.155 4.997351 3.022067 30.996209  
2002-12-17 14:05:41 51°24.19 3°18.447 4.994105 3.016593 30.937412  
2002-12-17 14:06:45 51°24.055 3°18.75 4.984519 3.009646 30.863537  
2002-12-17 14:07:44 51°23.888 3°18.968 4.966611 3.006909 30.84543  
2002-12-17 14:08:43 51°23.678 3°19.08 4.964632 3.006383 30.850758  
2002-12-17 14:09:41 51°23.457 3°19.041 4.93819 3.00491 30.838892  
2002-12-17 14:10:45 51°23.265 3°18.774 4.905745 3.005436 30.875555  
2002-12-17 14:11:45 51°23.163 3°18.419 4.910366 3.005647 30.893317  
2002-12-17 14:12:47 51°23.119 3°18.016 4.936617 3.018909 31.026902  
2002-12-17 14:13:47 51°23.072 3°17.63 4.943063 3.025646 31.09121  
2002-12-17 14:14:47 51°23.032 3°17.244 4.946667 3.02912 31.123328  
2002-12-17 14:15:46 51°22.981 3°16.869 4.955751 3.031541 31.150821  
2002-12-17 14:16:47 51°22.964 3°16.474 4.960268 3.037541 31.20672  
2002-12-17 14:17:47 51°22.938 3°16.085 4.956563 3.04133 31.251391  
2002-12-17 14:18:47 51°22.916 3°15.693 4.954533 3.042804 31.267313  
2002-12-17 14:19:47 51°22.884 3°15.301 4.951945 3.044699 31.292929  
2002-12-17 14:20:45 51°22.848 3°14.923 4.943825 3.046699 31.318932  
2002-12-17 14:21:45 51°22.805 3°14.532 4.938241 3.046383 31.325181  
2002-12-17 14:22:47 51°22.76 3°14.125 4.925245 3.045857 31.323298  
2002-12-17 14:23:47 51°22.714 3°13.733 4.890608 3.044489 31.319222  
2002-12-17 14:24:47 51°22.668 3°13.344 4.869573 3.039542 31.301503  
2002-12-17 14:25:47 51°22.625 3°12.956 4.862001 3.031752 31.224316  
2002-12-17 14:26:49 51°22.579 3°12.556 4.862153 3.020489 31.10104  
2002-12-17 14:27:49 51°22.533 3°12.171 4.865711 3.015436 31.041928  
2002-12-17 14:28:49 51°22.483 3°11.784 4.869217 3.015226 31.03709  
2002-12-17 14:29:49 51°22.434 3°11.393 4.871707 3.016068 31.044225  
2002-12-17 14:30:49 51°22.382 3°11.003 4.885223 3.018173 31.06491  
2002-12-17 14:31:49 51°22.344 3°10.609 4.887306 3.003858 30.891616  
2002-12-17 14:32:48 51°22.298 3°10.222 4.927275 3.006805 30.925105  
2002-12-17 14:33:48 51°22.238 3°9.833 4.876128 3.008805 30.943775  
2002-12-17 14:34:48 51°22.204 3°9.435 4.857172 3.004595 30.913768  
2002-12-17 14:35:48 51°22.19 3°9.041 4.856613 3.023752 31.146345  
2002-12-17 14:36:48 51°22.18 3°8.648 4.854936 3.026489 31.175865  
2002-12-17 14:37:48 51°22.147 3°8.259 4.856562 3.025647 31.169551  
2002-12-17 14:38:48 51°22.091 3°7.875 4.849395 3.026068 31.171072  
2002-12-17 14:39:48 51°22.028 3°7.491 4.860781 3.025542 31.173262  
2002-12-17 14:40:48 51°21.968 3°7.109 4.90285 3.02291 31.117158  
2002-12-17 14:41:48 51°21.89 3°6.738 4.919152 3.02291 31.089433  
2002-12-17 14:42:49 51°21.804 3°6.362 4.923061 3.023646 31.090475  
2002-12-17 14:43:49 51°21.709 3°5.996 4.963008 3.023646 31.074193  
2002-12-17 14:44:49 51°21.614 3°5.634 5.016315 3.025751 31.052574  
2002-12-17 14:45:49 51°21.513 3°5.276 5.072211 3.031329 31.049302  
2002-12-17 14:46:48 51°21.415 3°4.921 5.091305 3.033118 31.049315  
2002-12-17 14:47:48 51°21.318 3°4.558 5.12578 3.035329 31.050047  
2002-12-17 14:48:49 51°21.219 3°4.19 5.14501 3.038486 31.05987  
2002-12-17 14:49:49 51°21.125 3°3.829 5.158568 3.040065 31.060739  
2002-12-17 14:50:49 51°21.025 3°3.47 5.22687 3.042486 31.07273  
2002-12-17 14:51:49 51°20.928 3°3.107 5.191742 3.04417 31.07882  
2002-12-17 14:52:49 51°20.831 3°2.743 5.178343 3.04617 31.092506  
2002-12-17 14:53:49 51°20.727 3°2.384 5.173994 3.044381 31.089273  
2002-12-17 14:54:49 51°20.63 3°2.021 5.185827 3.045328 31.095119  
2002-12-17 14:55:49 51°20.526 3°1.661 5.187344 3.046591 31.103719  
2002-12-17 14:56:49 51°20.425 3°1.299 5.20807 3.049749 31.124808  
2002-12-17 14:57:50 51°20.325 3°0.929 5.216612 3.053328 31.153056  
2002-12-17 14:58:51 51°20.229 3°0.557 5.236824 3.055328 31.165102  
2002-12-17 14:59:51 51°20.134 3°0.192 5.318161 3.066171 31.250917  
2002-12-17 15:00:49 51°20.041 2°59.842 5.393951 3.083435 31.369149  
2002-12-17 15:01:49 51°19.949 2°59.477 5.560138 3.09533 31.416965  
2002-12-17 15:02:51 51°19.858 2°59.097 5.638801 3.113752 31.493237  
2002-12-17 15:03:51 51°19.78 2°58.722 5.693897 3.11891 31.490378  
2002-12-17 15:04:51 51°19.696 2°58.354 5.781109 3.142072 31.680307  
2002-12-17 15:05:51 51°19.611 2°57.988 5.916701 3.158496 31.793806  
2002-12-17 15:06:51 51°19.533 2°57.618 5.830426 3.17092 31.878661  
2002-12-17 15:07:50 51°19.451 2°57.256 5.881505 3.174289 31.903178  
2002-12-17 15:08:50 51°19.361 2°56.889 5.840635 3.172184 31.889479  
2002-12-17 15:09:49 51°19.261 2°56.541 5.873703 3.171131 31.887494  
2002-12-17 15:10:51 51°19.156 2°56.171 5.898705 3.178922 31.944173  
2002-12-17 15:11:51 51°19.057 2°55.812 5.927196 3.185661 31.99476  
2002-12-17 15:12:50 51°18.957 2°55.461 5.964913 3.193873 32.060055  
2002-12-17 15:13:51 51°18.855 2°55.097 6.056041 3.20693 32.16035  
2002-12-17 15:14:50 51°18.763 2°54.739 6.132098 3.228305 32.298052  
2002-12-17 15:15:50 51°18.669 2°54.377 6.162325 3.235676 32.343823  
2002-12-17 15:16:49 51°18.578 2°54.017 6.169444 3.240625 32.365985  
2002-12-17 15:17:50 51°18.481 2°53.648 6.186119 3.241467 32.365521  
2002-12-17 15:18:50 51°18.387 2°53.283 6.188956 3.245995 32.40501  
2002-12-17 15:19:50 51°18.295 2°52.917 6.222538 3.251892 32.463713  
2002-12-17 15:20:51 51°18.153 2°52.591 6.264803 3.261159 32.512232  
2002-12-17 15:21:51 51°17.939 2°52.425 6.231391 3.266003 32.56167  
2002-12-17 15:22:50 51°17.709 2°52.372 6.209754 3.262212 32.549228  
2002-12-17 15:23:49 51°17.479 2°52.318 6.186368 3.260527 32.54615  
2002-12-17 15:24:48 51°17.25 2°52.247 6.138523 3.258527 32.554331  
2002-12-17 15:25:50 51°17.031 2°52.362 6.116605 3.24747 32.493331  
2002-12-17 15:26:50 51°16.836 2°52.543 6.043323 3.245153 32.466826  
2002-12-17 15:27:48 51°16.645 2°52.724 6.005453 3.229042 32.355254  
2002-12-17 15:28:50 51°16.442 2°52.925 5.950778 3.216196 32.265745  
2002-12-17 15:29:55 51°16.231 2°53.125 5.670369 3.193769 32.113488  
2002-12-17 15:30:53 51°16.041 2°53.301 5.559686 3.143021 31.780186  
2002-12-17 15:31:55 51°15.842 2°53.499 5.540281 3.123649 31.629963  
2002-12-17 15:32:55 51°15.645 2°53.678 5.530627 3.116911 31.57151  
2002-12-17 15:33:53 51°15.456 2°53.863 5.510711 3.114174 31.542458  
2002-12-17 15:34:54 51°15.259 2°54.049 5.440701 3.10691 31.508843  
2002-12-17 15:35:54 51°15.071 2°54.241 5.394607 3.090698 31.382762  
2002-12-17 15:36:54 51°14.884 2°54.429 5.393901 3.087329 31.365152  
2002-12-17 15:37:54 51°14.702 2°54.638 5.366076 3.079223 31.292665  
2002-12-17 15:38:54 51°14.524 2°54.844 5.364413 3.076276 31.275692  
2002-12-17 15:39:54 51°14.368 2°55.073 5.240714 3.067959 31.19108